createdAt,value
2018-01-23T00:00:00.235Z,976.13
2018-01-23T00:01:00.222Z,976.12
2018-01-23T00:02:00.218Z,976.16
2018-01-23T00:03:00.258Z,976.21
2018-01-23T00:04:00.209Z,976.21
2018-01-23T00:05:00.206Z,976.16
2018-01-23T00:06:00.205Z,976.20
2018-01-23T00:07:00.915Z,976.22
2018-01-23T00:08:00.194Z,976.27
2018-01-23T00:09:00.192Z,976.26
2018-01-23T00:10:00.190Z,976.26
2018-01-23T00:11:00.185Z,976.28
2018-01-23T00:12:00.231Z,976.25
2018-01-23T00:13:00.176Z,976.26
2018-01-23T00:14:00.175Z,976.33
2018-01-23T00:15:00.173Z,976.37
2018-01-23T00:16:00.176Z,976.43
2018-01-23T00:17:00.201Z,976.46
2018-01-23T00:18:00.157Z,976.45
2018-01-23T00:19:00.154Z,976.47
2018-01-23T00:20:00.197Z,976.46
2018-01-23T00:21:00.144Z,976.45
2018-01-23T00:22:00.182Z,976.47
2018-01-23T00:23:00.754Z,976.51
2018-01-23T00:24:00.136Z,976.53
2018-01-23T00:25:00.175Z,976.53
2018-01-23T00:26:00.131Z,976.54
2018-01-23T00:27:00.166Z,976.57
2018-01-23T00:28:00.125Z,976.59
2018-01-23T00:29:00.128Z,976.61
2018-01-23T00:30:00.161Z,976.63
2018-01-23T00:31:00.117Z,976.65
2018-01-23T00:32:00.156Z,976.66
2018-01-23T00:33:00.102Z,976.68
2018-01-23T00:34:00.099Z,976.72
2018-01-23T00:35:00.101Z,976.67
2018-01-23T00:36:00.095Z,976.64
2018-01-23T00:37:00.207Z,976.61
2018-01-23T00:38:00.085Z,976.60
2018-01-23T00:39:00.082Z,976.60
2018-01-23T00:40:00.084Z,976.65
2018-01-23T00:41:00.077Z,976.69
2018-01-23T00:42:00.110Z,976.68
2018-01-23T00:43:00.068Z,976.78
2018-01-23T00:44:00.070Z,976.81
2018-01-23T00:45:00.059Z,976.81
2018-01-23T00:46:00.090Z,976.81
2018-01-23T00:47:00.052Z,976.82
2018-01-23T00:48:00.047Z,976.81
2018-01-23T00:49:00.044Z,976.85
2018-01-23T00:50:00.048Z,976.87
2018-01-23T00:51:00.083Z,976.88
2018-01-23T00:52:00.039Z,976.95
2018-01-23T00:53:00.037Z,976.96
2018-01-23T00:54:00.033Z,976.91
2018-01-23T00:55:00.028Z,976.93
2018-01-23T00:56:00.058Z,976.95
2018-01-23T00:57:00.064Z,976.95
2018-01-23T00:58:00.015Z,977.02
2018-01-23T00:59:00.008Z,977.02
2018-01-23T01:00:00.171Z,977.04
2018-01-23T01:01:00.841Z,977.02
2018-01-23T01:02:00.043Z,977.06
2018-01-23T01:02:59.999Z,977.08
2018-01-23T01:03:59.991Z,977.10
2018-01-23T01:04:59.996Z,977.13
2018-01-23T01:06:00.027Z,977.14
2018-01-23T01:07:00.026Z,977.17
2018-01-23T01:08:00.482Z,977.18
2018-01-23T01:08:59.974Z,977.18
2018-01-23T01:09:59.967Z,977.17
2018-01-23T01:10:59.970Z,977.21
2018-01-23T01:12:00.008Z,977.25
2018-01-23T01:12:59.958Z,977.29
2018-01-23T01:13:59.956Z,977.30
2018-01-23T01:14:59.953Z,977.32
2018-01-23T01:15:59.993Z,977.35
2018-01-23T01:16:59.944Z,977.37
2018-01-23T01:17:59.942Z,977.43
2018-01-23T01:18:59.937Z,977.45
2018-01-23T01:19:59.953Z,977.51
2018-01-23T01:20:59.975Z,977.54
2018-01-23T01:21:59.925Z,977.56
2018-01-23T01:22:59.971Z,977.56
2018-01-23T01:23:59.921Z,977.57
2018-01-23T01:24:59.923Z,977.59
2018-01-23T01:25:59.956Z,977.58
2018-01-23T01:26:59.909Z,977.66
2018-01-23T01:27:59.947Z,977.66
2018-01-23T01:28:59.910Z,977.67
2018-01-23T01:29:59.899Z,977.67
2018-01-23T01:30:59.894Z,977.71
2018-01-23T01:32:14.822Z,977.72
2018-01-23T01:32:59.936Z,977.76
2018-01-23T01:33:59.884Z,977.76
2018-01-23T01:35:01.408Z,977.79
2018-01-23T01:36:14.817Z,977.83
2018-01-23T01:36:59.866Z,977.83
2018-01-23T01:37:59.864Z,977.88
2018-01-23T01:38:59.954Z,977.87
2018-01-23T01:39:59.862Z,977.89
2018-01-23T01:41:14.815Z,977.94
2018-01-23T01:42:02.828Z,977.95
2018-01-23T01:43:00.666Z,977.96
2018-01-23T01:44:14.837Z,978.00
2018-01-23T01:44:59.841Z,978.01
2018-01-23T01:45:59.839Z,978.02
2018-01-23T01:46:59.840Z,978.05
2018-01-23T01:47:59.838Z,978.10
2018-01-23T01:48:59.983Z,978.07
2018-01-23T01:49:59.818Z,978.10
2018-01-23T01:50:59.804Z,978.08
2018-01-23T01:51:59.801Z,978.13
2018-01-23T01:53:06.338Z,978.17
2018-01-23T01:53:59.811Z,978.19
2018-01-23T01:54:59.853Z,978.19
2018-01-23T01:55:59.806Z,978.19
2018-01-23T01:56:59.792Z,978.20
2018-01-23T01:57:59.784Z,978.21
2018-01-23T01:58:59.797Z,978.24
2018-01-23T01:59:59.828Z,978.25
2018-01-23T02:00:59.786Z,978.29
2018-01-23T02:01:59.780Z,978.29
2018-01-23T02:02:59.776Z,978.27
2018-01-23T02:03:59.774Z,978.28
2018-01-23T02:04:59.876Z,978.32
2018-01-23T02:05:59.771Z,978.32
2018-01-23T02:06:59.765Z,978.34
2018-01-23T02:07:59.776Z,978.33
2018-01-23T02:08:59.766Z,978.38
2018-01-23T02:10:25.869Z,978.37
2018-01-23T02:10:59.733Z,978.39
2018-01-23T02:11:59.748Z,978.39
2018-01-23T02:12:59.744Z,978.39
2018-01-23T02:13:59.732Z,978.37
2018-01-23T02:14:59.892Z,978.39
2018-01-23T02:15:59.732Z,978.43
2018-01-23T02:16:59.725Z,978.49
2018-01-23T02:17:59.752Z,978.46
2018-01-23T02:18:59.730Z,978.49
2018-01-23T02:19:59.719Z,978.44
2018-01-23T02:20:59.781Z,978.43
2018-01-23T02:22:06.362Z,978.39
2018-01-23T02:22:59.786Z,978.38
2018-01-23T02:23:59.711Z,978.37
2018-01-23T02:24:59.695Z,978.40
2018-01-23T02:26:14.333Z,978.39
2018-01-23T02:26:59.732Z,978.37
2018-01-23T02:28:14.328Z,978.36
2018-01-23T02:28:59.689Z,978.29
2018-01-23T02:30:00.076Z,978.31
2018-01-23T02:30:59.686Z,978.34
2018-01-23T02:31:59.721Z,978.36
2018-01-23T02:32:59.673Z,978.33
2018-01-23T02:33:59.669Z,978.34
2018-01-23T02:34:59.668Z,978.36
2018-01-23T02:35:59.664Z,978.37
2018-01-23T02:36:59.903Z,978.33
2018-01-23T02:37:59.659Z,978.35
2018-01-23T02:38:59.634Z,978.34
2018-01-23T02:40:14.331Z,978.33
2018-01-23T02:41:14.333Z,978.32
2018-01-23T02:42:00.140Z,978.31
2018-01-23T02:42:59.728Z,978.39
2018-01-23T02:43:59.619Z,978.37
2018-01-23T02:44:59.632Z,978.38
2018-01-23T02:45:59.624Z,978.36
2018-01-23T02:46:59.630Z,978.40
2018-01-23T02:48:13.876Z,978.41
2018-01-23T02:48:59.615Z,978.38
2018-01-23T02:49:59.598Z,978.36
2018-01-23T02:50:59.601Z,978.41
2018-01-23T02:51:59.609Z,978.37
2018-01-23T02:52:59.658Z,978.35
2018-01-23T02:54:06.329Z,978.42
2018-01-23T02:54:59.589Z,978.40
2018-01-23T02:55:59.582Z,978.42
2018-01-23T02:56:59.592Z,978.49
2018-01-23T02:58:10.385Z,978.49
2018-01-23T02:58:59.564Z,978.52
2018-01-23T02:59:59.595Z,978.52
2018-01-23T03:00:59.576Z,978.45
2018-01-23T03:02:00.172Z,978.50
2018-01-23T03:02:59.812Z,978.52
2018-01-23T03:03:59.563Z,978.59
2018-01-23T03:04:59.565Z,978.64
2018-01-23T03:05:59.555Z,978.65
2018-01-23T03:06:59.554Z,978.66
2018-01-23T03:08:13.914Z,978.66
2018-01-23T03:09:06.320Z,978.68
2018-01-23T03:09:59.544Z,978.70
2018-01-23T03:10:59.544Z,978.68
2018-01-23T03:11:59.533Z,978.75
2018-01-23T03:12:59.517Z,978.80
2018-01-23T03:13:59.566Z,978.77
2018-01-23T03:14:59.537Z,978.78
2018-01-23T03:15:59.525Z,978.79
2018-01-23T03:16:59.519Z,978.77
2018-01-23T03:17:59.512Z,978.79
2018-01-23T03:19:07.357Z,978.85
2018-01-23T03:19:59.519Z,978.86
2018-01-23T03:20:59.499Z,978.90
2018-01-23T03:21:59.482Z,978.88
2018-01-23T03:22:59.501Z,978.89
2018-01-23T03:23:59.552Z,978.91
2018-01-23T03:24:59.483Z,978.91
2018-01-23T03:25:59.480Z,978.95
2018-01-23T03:27:06.383Z,979.01
2018-01-23T03:28:14.315Z,979.01
2018-01-23T03:28:59.475Z,979.01
2018-01-23T03:29:59.735Z,979.01
2018-01-23T03:31:06.329Z,979.02
2018-01-23T03:32:20.475Z,979.05
2018-01-23T03:33:02.330Z,979.11
2018-01-23T03:33:59.460Z,979.12
2018-01-23T03:34:59.474Z,979.15
2018-01-23T03:35:59.453Z,979.14
2018-01-23T03:36:59.445Z,979.14
2018-01-23T03:37:59.443Z,979.15
2018-01-23T03:39:06.332Z,979.19
2018-01-23T03:39:59.468Z,979.19
2018-01-23T03:41:20.442Z,979.17
2018-01-23T03:41:59.412Z,979.16
2018-01-23T03:43:09.361Z,979.19
2018-01-23T03:43:59.423Z,979.16
2018-01-23T03:44:59.458Z,979.18
2018-01-23T03:45:59.417Z,979.12
2018-01-23T03:46:59.411Z,979.15
2018-01-23T03:47:59.405Z,979.19
2018-01-23T03:48:59.402Z,979.18
2018-01-23T03:49:59.448Z,979.18
2018-01-23T03:50:59.393Z,979.20
2018-01-23T03:51:59.394Z,979.17
2018-01-23T03:52:59.389Z,979.19
2018-01-23T03:53:59.426Z,979.17
2018-01-23T03:54:59.379Z,979.18
2018-01-23T03:55:59.418Z,979.17
2018-01-23T03:56:59.379Z,979.26
2018-01-23T03:57:59.368Z,979.25
2018-01-23T03:58:59.366Z,979.29
2018-01-23T03:59:59.372Z,979.31
2018-01-23T04:00:59.417Z,979.32
2018-01-23T04:01:59.365Z,979.35
2018-01-23T04:02:59.361Z,979.37
2018-01-23T04:03:59.538Z,979.39
2018-01-23T04:04:59.356Z,979.48
2018-01-23T04:05:59.400Z,979.46
2018-01-23T04:06:59.346Z,979.48
2018-01-23T04:07:59.342Z,979.51
2018-01-23T04:08:59.377Z,979.54
2018-01-23T04:09:59.333Z,979.50
2018-01-23T04:10:59.332Z,979.57
2018-01-23T04:11:59.878Z,979.54
2018-01-23T04:12:59.325Z,979.56
2018-01-23T04:13:59.319Z,979.53
2018-01-23T04:14:59.315Z,979.58
2018-01-23T04:15:59.355Z,979.62
2018-01-23T04:16:59.308Z,979.62
2018-01-23T04:17:59.304Z,979.62
2018-01-23T04:18:59.346Z,979.63
2018-01-23T04:19:59.297Z,979.65
2018-01-23T04:20:59.297Z,979.67
2018-01-23T04:21:59.337Z,979.63
2018-01-23T04:22:59.286Z,979.66
2018-01-23T04:23:59.325Z,979.67
2018-01-23T04:24:59.278Z,979.67
2018-01-23T04:25:59.277Z,979.69
2018-01-23T04:26:59.268Z,979.68
2018-01-23T04:27:59.295Z,979.72
2018-01-23T04:28:59.308Z,979.79
2018-01-23T04:29:59.256Z,979.74
2018-01-23T04:30:59.258Z,979.76
2018-01-23T04:31:59.251Z,979.77
2018-01-23T04:32:59.246Z,979.82
2018-01-23T04:33:59.279Z,979.85
2018-01-23T04:34:59.241Z,979.84
2018-01-23T04:35:59.238Z,979.81
2018-01-23T04:36:59.275Z,979.79
2018-01-23T04:37:59.284Z,979.78
2018-01-23T04:38:59.224Z,979.82
2018-01-23T04:39:59.222Z,979.88
2018-01-23T04:40:59.221Z,979.86
2018-01-23T04:41:59.216Z,979.83
2018-01-23T04:42:59.248Z,979.80
2018-01-23T04:43:59.205Z,979.86
2018-01-23T04:44:59.201Z,979.85
2018-01-23T04:45:59.196Z,979.85
2018-01-23T04:46:59.209Z,979.88
2018-01-23T04:47:59.233Z,979.86
2018-01-23T04:48:59.187Z,979.89
2018-01-23T04:49:59.181Z,979.85
2018-01-23T04:50:59.181Z,979.87
2018-01-23T04:51:59.174Z,979.87
2018-01-23T04:52:59.208Z,979.91
2018-01-23T04:53:59.167Z,979.94
2018-01-23T04:54:59.167Z,979.94
2018-01-23T04:55:59.159Z,979.94
2018-01-23T04:56:59.154Z,979.94
2018-01-23T04:57:59.196Z,979.99
2018-01-23T04:58:59.147Z,979.97
2018-01-23T04:59:59.144Z,980.00
2018-01-23T05:00:59.141Z,980.03
2018-01-23T05:01:59.134Z,980.04
2018-01-23T05:02:59.170Z,980.08
2018-01-23T05:03:59.172Z,980.09
2018-01-23T05:04:59.123Z,980.11
2018-01-23T05:05:59.123Z,980.10
2018-01-23T05:06:59.118Z,980.13
2018-01-23T05:07:59.150Z,980.15
2018-01-23T05:08:59.109Z,980.17
2018-01-23T05:09:59.106Z,980.20
2018-01-23T05:10:59.101Z,980.20
2018-01-23T05:11:59.104Z,980.22
2018-01-23T05:12:59.133Z,980.26
2018-01-23T05:13:59.099Z,980.33
2018-01-23T05:14:59.087Z,980.31
2018-01-23T05:15:59.086Z,980.33
2018-01-23T05:16:59.082Z,980.33
2018-01-23T05:17:59.120Z,980.31
2018-01-23T05:18:59.082Z,980.39
2018-01-23T05:19:59.068Z,980.39
2018-01-23T05:20:59.064Z,980.41
2018-01-23T05:21:59.102Z,980.47
2018-01-23T05:22:59.059Z,980.45
2018-01-23T05:23:59.057Z,980.51
2018-01-23T05:24:59.068Z,980.56
2018-01-23T05:25:59.045Z,980.56
2018-01-23T05:26:59.083Z,980.57
2018-01-23T05:27:59.037Z,980.53
2018-01-23T05:28:59.035Z,980.58
2018-01-23T05:29:59.031Z,980.58
2018-01-23T05:30:59.037Z,980.59
2018-01-23T05:31:59.076Z,980.59
2018-01-23T05:32:59.019Z,980.60
2018-01-23T05:33:59.016Z,980.60
2018-01-23T05:34:59.011Z,980.63
2018-01-23T05:35:59.007Z,980.59
2018-01-23T05:36:59.060Z,980.62
2018-01-23T05:37:59.001Z,980.64
2018-01-23T05:38:58.995Z,980.66
2018-01-23T05:39:58.991Z,980.70
2018-01-23T05:40:58.988Z,980.68
2018-01-23T05:41:58.986Z,980.69
2018-01-23T05:42:59.027Z,980.71
2018-01-23T05:43:58.981Z,980.70
2018-01-23T05:44:58.975Z,980.75
2018-01-23T05:45:58.970Z,980.74
2018-01-23T05:46:58.968Z,980.77
2018-01-23T05:47:59.000Z,980.75
2018-01-23T05:48:58.960Z,980.76
2018-01-23T05:49:58.956Z,980.76
2018-01-23T05:50:58.952Z,980.75
2018-01-23T05:51:58.947Z,980.77
2018-01-23T05:52:58.995Z,980.78
2018-01-23T05:53:58.944Z,980.78
2018-01-23T05:54:58.940Z,980.82
2018-01-23T05:55:58.934Z,980.86
2018-01-23T05:56:58.974Z,980.87
2018-01-23T05:57:58.928Z,980.91
2018-01-23T05:58:58.966Z,980.89
2018-01-23T05:59:58.919Z,980.94
2018-01-23T06:00:58.916Z,980.95
2018-01-23T06:01:58.946Z,980.92
2018-01-23T06:02:58.912Z,980.93
2018-01-23T06:03:58.949Z,980.92
2018-01-23T06:04:58.902Z,980.94
2018-01-23T06:05:58.922Z,980.97
2018-01-23T06:06:58.939Z,981.00
2018-01-23T06:07:58.898Z,981.04
2018-01-23T06:08:58.936Z,981.02
2018-01-23T06:09:58.881Z,981.03
2018-01-23T06:10:58.879Z,981.02
2018-01-23T06:11:58.914Z,981.04
2018-01-23T06:12:58.876Z,981.06
2018-01-23T06:13:58.867Z,981.03
2018-01-23T06:14:58.903Z,981.08
2018-01-23T06:15:58.859Z,981.12
2018-01-23T06:16:58.865Z,981.10
2018-01-23T06:17:58.853Z,981.15
2018-01-23T06:18:58.851Z,981.16
2018-01-23T06:19:58.887Z,981.18
2018-01-23T06:20:58.844Z,981.20
2018-01-23T06:21:58.838Z,981.19
2018-01-23T06:22:58.836Z,981.19
2018-01-23T06:23:58.833Z,981.18
2018-01-23T06:24:58.878Z,981.25
2018-01-23T06:25:58.828Z,981.24
2018-01-23T06:26:58.865Z,981.29
2018-01-23T06:27:58.817Z,981.31
2018-01-23T06:28:58.817Z,981.36
2018-01-23T06:29:58.810Z,981.33
2018-01-23T06:30:58.806Z,981.35
2018-01-23T06:31:58.841Z,981.32
2018-01-23T06:32:58.799Z,981.35
2018-01-23T06:33:58.799Z,981.35
2018-01-23T06:34:58.807Z,981.39
2018-01-23T06:35:58.827Z,981.38
2018-01-23T06:36:58.786Z,981.46
2018-01-23T06:37:58.781Z,981.42
2018-01-23T06:38:58.778Z,981.47
2018-01-23T06:39:58.774Z,981.52
2018-01-23T06:40:58.807Z,981.53
2018-01-23T06:41:58.768Z,981.56
2018-01-23T06:42:58.762Z,981.57
2018-01-23T06:43:58.868Z,981.58
2018-01-23T06:44:58.755Z,981.56
2018-01-23T06:45:58.791Z,981.57
2018-01-23T06:46:58.749Z,981.60
2018-01-23T06:47:58.747Z,981.61
2018-01-23T06:48:58.742Z,981.63
2018-01-23T06:49:58.739Z,981.65
2018-01-23T06:50:58.777Z,981.66
2018-01-23T06:51:58.735Z,981.67
2018-01-23T06:52:58.730Z,981.67
2018-01-23T06:53:59.045Z,981.71
2018-01-23T06:54:58.724Z,981.75
2018-01-23T06:55:58.765Z,981.75
2018-01-23T06:56:59.255Z,981.80
2018-01-23T06:57:58.711Z,981.83
2018-01-23T06:58:58.704Z,981.81
2018-01-23T06:59:58.704Z,981.85
2018-01-23T07:00:58.742Z,981.89
2018-01-23T07:01:58.695Z,981.92
2018-01-23T07:02:58.693Z,981.93
2018-01-23T07:03:58.692Z,982.00
2018-01-23T07:04:58.695Z,981.96
2018-01-23T07:05:58.725Z,981.96
2018-01-23T07:06:58.676Z,981.97
2018-01-23T07:07:58.675Z,981.99
2018-01-23T07:08:58.676Z,982.00
2018-01-23T07:09:58.668Z,981.98
2018-01-23T07:10:58.701Z,981.99
2018-01-23T07:11:58.662Z,982.00
2018-01-23T07:12:58.660Z,982.02
2018-01-23T07:13:58.656Z,982.03
2018-01-23T07:14:58.655Z,982.05
2018-01-23T07:15:58.692Z,982.07
2018-01-23T07:16:58.645Z,982.07
2018-01-23T07:17:58.641Z,982.05
2018-01-23T07:18:58.646Z,982.05
2018-01-23T07:19:58.634Z,982.04
2018-01-23T07:20:58.670Z,982.06
2018-01-23T07:21:58.626Z,982.04
2018-01-23T07:22:58.626Z,982.04
2018-01-23T07:23:58.741Z,982.08
2018-01-23T07:24:58.616Z,982.07
2018-01-23T07:25:58.652Z,982.11
2018-01-23T07:26:58.612Z,982.13
2018-01-23T07:27:58.604Z,982.11
2018-01-23T07:28:58.605Z,982.11
2018-01-23T07:29:58.603Z,982.15
2018-01-23T07:30:58.634Z,982.16
2018-01-23T07:31:58.596Z,982.18
2018-01-23T07:32:58.589Z,982.16
2018-01-23T07:33:58.586Z,982.17
2018-01-23T07:34:58.585Z,982.17
2018-01-23T07:35:58.624Z,982.16
2018-01-23T07:36:58.580Z,982.13
2018-01-23T07:37:58.573Z,982.18
2018-01-23T07:38:58.570Z,982.21
2018-01-23T07:39:58.566Z,982.25
2018-01-23T07:40:58.603Z,982.26
2018-01-23T07:41:58.560Z,982.34
2018-01-23T07:42:58.555Z,982.35
2018-01-23T07:43:58.553Z,982.39
2018-01-23T07:44:58.549Z,982.44
2018-01-23T07:45:58.589Z,982.44
2018-01-23T07:46:58.540Z,982.46
2018-01-23T07:47:58.541Z,982.48
2018-01-23T07:48:58.538Z,982.55
2018-01-23T07:49:58.533Z,982.56
2018-01-23T07:50:58.571Z,982.56
2018-01-23T07:51:58.525Z,982.61
2018-01-23T07:52:58.523Z,982.62
2018-01-23T07:53:58.524Z,982.65
2018-01-23T07:54:58.515Z,982.65
2018-01-23T07:55:58.559Z,982.64
2018-01-23T07:56:58.510Z,982.64
2018-01-23T07:57:58.508Z,982.70
2018-01-23T07:58:58.502Z,982.69
2018-01-23T07:59:58.501Z,982.73
2018-01-23T08:00:58.541Z,982.73
2018-01-23T08:01:58.533Z,982.79
2018-01-23T08:02:58.497Z,982.81
2018-01-23T08:03:58.489Z,982.85
2018-01-23T08:04:58.487Z,982.80
2018-01-23T08:05:58.482Z,982.86
2018-01-23T08:06:58.519Z,982.90
2018-01-23T08:07:58.961Z,982.90
2018-01-23T08:08:58.472Z,982.88
2018-01-23T08:09:58.473Z,982.87
2018-01-23T08:10:58.467Z,982.89
2018-01-23T08:11:58.501Z,982.93
2018-01-23T08:12:58.467Z,982.93
2018-01-23T08:13:58.458Z,982.89
2018-01-23T08:14:58.455Z,982.90
2018-01-23T08:15:58.453Z,982.90
2018-01-23T08:16:58.489Z,982.94
2018-01-23T08:17:58.446Z,982.89
2018-01-23T08:18:58.443Z,982.93
2018-01-23T08:19:58.441Z,982.96
2018-01-23T08:20:58.440Z,982.96
2018-01-23T08:21:58.479Z,982.96
2018-01-23T08:22:58.432Z,982.98
2018-01-23T08:23:58.431Z,982.96
2018-01-23T08:24:58.426Z,982.95
2018-01-23T08:25:58.422Z,982.99
2018-01-23T08:26:58.462Z,982.99
2018-01-23T08:27:58.418Z,982.96
2018-01-23T08:28:58.413Z,983.00
2018-01-23T08:29:58.412Z,983.02
2018-01-23T08:30:58.412Z,982.99
2018-01-23T08:31:58.452Z,983.02
2018-01-23T08:32:58.450Z,983.01
2018-01-23T08:33:58.402Z,983.02
2018-01-23T08:34:58.401Z,983.01
2018-01-23T08:35:58.397Z,983.06
2018-01-23T08:36:58.443Z,983.06
2018-01-23T08:37:58.389Z,983.06
2018-01-23T08:38:58.391Z,983.07
2018-01-23T08:39:58.385Z,983.09
2018-01-23T08:40:58.385Z,983.10
2018-01-23T08:41:58.425Z,983.15
2018-01-23T08:42:58.381Z,983.16
2018-01-23T08:43:58.376Z,983.12
2018-01-23T08:44:58.375Z,983.15
2018-01-23T08:45:58.372Z,983.17
2018-01-23T08:46:58.412Z,983.15
2018-01-23T08:47:58.367Z,983.18
2018-01-23T08:48:58.364Z,983.20
2018-01-23T08:49:58.362Z,983.20
2018-01-23T08:50:58.364Z,983.19
2018-01-23T08:51:58.396Z,983.23
2018-01-23T08:52:58.355Z,983.23
2018-01-23T08:53:58.391Z,983.26
2018-01-23T08:54:58.348Z,983.25
2018-01-23T08:55:58.347Z,983.24
2018-01-23T08:56:58.344Z,983.20
2018-01-23T08:57:58.345Z,983.26
2018-01-23T08:58:58.386Z,983.28
2018-01-23T08:59:58.338Z,983.28
2018-01-23T09:00:58.337Z,983.36
2018-01-23T09:01:58.334Z,983.31
2018-01-23T09:02:58.337Z,983.32
2018-01-23T09:03:58.373Z,983.34
2018-01-23T09:04:58.463Z,983.38
2018-01-23T09:05:58.365Z,983.37
2018-01-23T09:06:58.323Z,983.41
2018-01-23T09:07:58.322Z,983.44
2018-01-23T09:08:58.321Z,983.47
2018-01-23T09:09:58.360Z,983.44
2018-01-23T09:10:58.354Z,983.45
2018-01-23T09:11:58.311Z,983.48
2018-01-23T09:12:58.712Z,983.49
2018-01-23T09:13:58.308Z,983.52
2018-01-23T09:14:58.355Z,983.52
2018-01-23T09:15:58.344Z,983.53
2018-01-23T09:16:58.304Z,983.55
2018-01-23T09:17:58.320Z,983.59
2018-01-23T09:18:58.308Z,983.60
2018-01-23T09:19:58.364Z,983.64
2018-01-23T09:20:58.303Z,983.65
2018-01-23T09:21:58.290Z,983.65
2018-01-23T09:22:58.296Z,983.72
2018-01-23T09:23:58.289Z,983.73
2018-01-23T09:24:58.334Z,983.74
2018-01-23T09:25:58.292Z,983.81
2018-01-23T09:26:58.282Z,983.83
2018-01-23T09:27:58.306Z,983.80
2018-01-23T09:28:58.281Z,983.84
2018-01-23T09:29:58.323Z,983.88
2018-01-23T09:30:58.322Z,983.87
2018-01-23T09:31:58.275Z,983.90
2018-01-23T09:32:58.277Z,983.91
2018-01-23T09:33:58.269Z,983.93
2018-01-23T09:34:58.270Z,983.93
2018-01-23T09:35:58.306Z,983.97
2018-01-23T09:36:58.270Z,983.97
2018-01-23T09:37:58.264Z,983.97
2018-01-23T09:38:58.265Z,984.01
2018-01-23T09:39:58.306Z,984.00
2018-01-23T09:40:58.260Z,983.98
2018-01-23T09:41:58.259Z,984.00
2018-01-23T09:42:58.262Z,984.03
2018-01-23T09:43:58.260Z,984.06
2018-01-23T09:44:58.301Z,984.09
2018-01-23T09:45:58.253Z,984.09
2018-01-23T09:46:58.253Z,984.13
2018-01-23T09:47:58.250Z,984.17
2018-01-23T09:48:58.251Z,984.17
2018-01-23T09:49:58.285Z,984.18
2018-01-23T09:50:58.286Z,984.15
2018-01-23T09:51:58.244Z,984.20
2018-01-23T09:52:58.246Z,984.19
2018-01-23T09:53:58.242Z,984.23
2018-01-23T09:54:58.243Z,984.20
2018-01-23T09:55:58.284Z,984.21
2018-01-23T09:56:58.236Z,984.16
2018-01-23T09:57:58.238Z,984.19
2018-01-23T09:58:58.239Z,984.17
2018-01-23T09:59:58.289Z,984.15
2018-01-23T10:00:58.238Z,984.15
2018-01-23T10:01:58.236Z,984.18
2018-01-23T10:02:58.230Z,984.13
2018-01-23T10:03:58.229Z,984.15
2018-01-23T10:04:58.270Z,984.19
2018-01-23T10:05:58.242Z,984.18
2018-01-23T10:06:58.270Z,984.17
2018-01-23T10:07:58.227Z,984.18
2018-01-23T10:08:58.223Z,984.22
2018-01-23T10:09:58.264Z,984.20
2018-01-23T10:10:58.224Z,984.21
2018-01-23T10:11:58.260Z,984.25
2018-01-23T10:12:58.221Z,984.22
2018-01-23T10:13:58.219Z,984.25
2018-01-23T10:14:58.219Z,984.25
2018-01-23T10:15:58.220Z,984.27
2018-01-23T10:16:58.266Z,984.28
2018-01-23T10:17:58.217Z,984.25
2018-01-23T10:18:58.218Z,984.24
2018-01-23T10:19:58.262Z,984.26
2018-01-23T10:20:58.216Z,984.30
2018-01-23T10:21:58.219Z,984.29
2018-01-23T10:22:58.217Z,984.31
2018-01-23T10:23:58.217Z,984.35
2018-01-23T10:24:58.261Z,984.36
2018-01-23T10:25:58.216Z,984.34
2018-01-23T10:26:58.226Z,984.36
2018-01-23T10:27:58.597Z,984.34
2018-01-23T10:28:58.224Z,984.37
2018-01-23T10:29:58.620Z,984.41
2018-01-23T10:30:58.231Z,984.39
2018-01-23T10:31:58.260Z,984.40
2018-01-23T10:32:58.217Z,984.40
2018-01-23T10:33:58.255Z,984.39
2018-01-23T10:34:58.221Z,984.39
2018-01-23T10:35:58.216Z,984.36
2018-01-23T10:36:58.436Z,984.39
2018-01-23T10:37:58.216Z,984.42
2018-01-23T10:38:58.215Z,984.42
2018-01-23T10:39:58.257Z,984.42
2018-01-23T10:40:58.217Z,984.45
2018-01-23T10:41:58.216Z,984.42
2018-01-23T10:42:58.258Z,984.45
2018-01-23T10:43:58.815Z,984.45
2018-01-23T10:44:58.250Z,984.47
2018-01-23T10:45:58.223Z,984.46
2018-01-23T10:46:58.221Z,984.45
2018-01-23T10:47:58.218Z,984.43
2018-01-23T10:49:05.292Z,984.45
2018-01-23T10:49:58.256Z,984.47
2018-01-23T10:50:58.212Z,984.45
2018-01-23T10:51:58.213Z,984.47
2018-01-23T10:52:58.217Z,984.47
2018-01-23T10:53:58.253Z,984.48
2018-01-23T10:54:58.259Z,984.41
2018-01-23T10:55:58.304Z,984.42
2018-01-23T10:56:58.212Z,984.40
2018-01-23T10:57:58.233Z,984.41
2018-01-23T10:58:58.214Z,984.44
2018-01-23T10:59:58.892Z,984.46
2018-01-23T11:00:58.214Z,984.49
2018-01-23T11:01:58.277Z,984.50
2018-01-23T11:02:58.215Z,984.49
2018-01-23T11:03:58.301Z,984.50
2018-01-23T11:04:58.260Z,984.50
2018-01-23T11:05:58.339Z,984.45
2018-01-23T11:06:58.390Z,984.47
2018-01-23T11:08:00.840Z,984.47
2018-01-23T11:08:58.216Z,984.42
2018-01-23T11:09:58.322Z,984.46
2018-01-23T11:10:58.223Z,984.44
2018-01-23T11:11:58.219Z,984.44
2018-01-23T11:12:58.294Z,984.45
2018-01-23T11:13:58.261Z,984.48
2018-01-23T11:14:58.219Z,984.44
2018-01-23T11:15:58.219Z,984.45
2018-01-23T11:16:59.366Z,984.49
2018-01-23T11:17:58.226Z,984.48
2018-01-23T11:18:58.263Z,984.52
2018-01-23T11:19:58.240Z,984.50
2018-01-23T11:20:58.219Z,984.50
2018-01-23T11:21:58.216Z,984.49
2018-01-23T11:22:58.298Z,984.47
2018-01-23T11:23:58.257Z,984.48
2018-01-23T11:24:58.262Z,984.49
2018-01-23T11:25:58.218Z,984.51
2018-01-23T11:26:58.219Z,984.53
2018-01-23T11:27:58.218Z,984.57
2018-01-23T11:28:58.220Z,984.53
2018-01-23T11:29:58.258Z,984.54
2018-01-23T11:30:58.222Z,984.51
2018-01-23T11:31:58.215Z,984.56
2018-01-23T11:32:58.219Z,984.53
2018-01-23T11:33:58.260Z,984.52
2018-01-23T11:34:58.213Z,984.56
2018-01-23T11:35:58.213Z,984.52
2018-01-23T11:36:58.213Z,984.60
2018-01-23T11:37:58.215Z,984.60
2018-01-23T11:38:58.254Z,984.63
2018-01-23T11:39:58.213Z,984.65
2018-01-23T11:40:58.209Z,984.62
2018-01-23T11:41:58.210Z,984.61
2018-01-23T11:42:58.209Z,984.61
2018-01-23T11:43:58.258Z,984.60
2018-01-23T11:44:58.208Z,984.58
2018-01-23T11:45:58.721Z,984.60
2018-01-23T11:46:58.206Z,984.55
2018-01-23T11:47:58.216Z,984.55
2018-01-23T11:48:58.254Z,984.58
2018-01-23T11:49:58.200Z,984.55
2018-01-23T11:50:58.204Z,984.54
2018-01-23T11:51:58.203Z,984.56
2018-01-23T11:53:06.332Z,984.54
2018-01-23T11:53:58.200Z,984.54
2018-01-23T11:54:58.201Z,984.52
2018-01-23T11:55:58.200Z,984.49
2018-01-23T11:56:58.238Z,984.54
2018-01-23T11:57:58.343Z,984.54
2018-01-23T11:58:58.196Z,984.51
2018-01-23T11:59:58.195Z,984.53
2018-01-23T12:00:58.195Z,984.51
2018-01-23T12:01:58.239Z,984.50
2018-01-23T12:02:58.197Z,984.44
2018-01-23T12:03:58.231Z,984.52
2018-01-23T12:04:58.191Z,984.43
2018-01-23T12:05:58.189Z,984.41
2018-01-23T12:06:58.189Z,984.48
2018-01-23T12:07:58.227Z,984.44
2018-01-23T12:08:58.187Z,984.47
2018-01-23T12:09:58.186Z,984.47
2018-01-23T12:10:58.184Z,984.49
2018-01-23T12:11:58.181Z,984.45
2018-01-23T12:12:58.608Z,984.45
2018-01-23T12:13:58.399Z,984.41
2018-01-23T12:14:58.181Z,984.47
2018-01-23T12:15:58.181Z,984.44
2018-01-23T12:16:58.179Z,984.46
2018-01-23T12:17:58.178Z,984.46
2018-01-23T12:18:58.214Z,984.49
2018-01-23T12:19:58.175Z,984.43
2018-01-23T12:20:58.176Z,984.42
2018-01-23T12:21:58.173Z,984.39
2018-01-23T12:22:58.216Z,984.38
2018-01-23T12:23:58.170Z,984.35
2018-01-23T12:24:58.168Z,984.37
2018-01-23T12:25:58.168Z,984.35
2018-01-23T12:26:58.168Z,984.36
2018-01-23T12:27:58.212Z,984.35